East Haven, Indiana
Current Conditions -  °F | °C
As of 1:15 AM on Monday 26 Jan 2015 (Local Time) from KMWO Reporting Station
Light Snow Light Snow  
Wind Chill: 17°   Ceiling: 5500
Heat Index: 29°   Visibility: 5mi
Dew Point: 25°   Wind: 17mph
Humidity: 83%   Direction: 30°NNE
Pressure: 29.77"   Gusts: 22mph
Location:  39.8311°N, 84.8879°W
Report Text: KMWO 260615Z AUTO 03015G19KT 5SM -SN SCT013 SCT025 OVC055 M01/M04 A2977 RMK AO2 T10151040
Loading
Personal Weather Stations






























Interactive Weather Map New forecast layout! Learn more

10-Day Weather Forecast

Advertisements
Track Severe Weather on mobile